Time;durP1;ratioP1;P1;durP2;ratioP2;P2;SDS_P1;SDS_P2;PMS_P1;PMS_P2;Temp;Humidity;BMP_temperature;BMP_pressure;BME280_temperature;BME280_humidity;BME280_pressure;Samples;Min_cycle;Max_cycle;Signal;HPM_P1;HPM_P2
2023/11/19 00:00:27;;;;;;;1.95;1.30;;;13.10;99.90;;;;;;4964819;28;87271;-78
2023/11/19 00:02:52;;;;;;;3.17;1.35;;;13.10;99.90;;;;;;4960439;28;86346;-79
2023/11/19 00:05:18;;;;;;;3.40;1.50;;;13.00;99.90;;;;;;4959685;28;87298;-78
2023/11/19 00:07:44;;;;;;;1.98;1.48;;;13.10;99.90;;;;;;4960106;28;86369;-77
2023/11/19 00:10:11;;;;;;;2.40;1.85;;;13.10;99.90;;;;;;4969740;28;86449;-80
2023/11/19 00:12:39;;;;;;;2.80;1.85;;;13.10;99.90;;;;;;4958029;28;86888;-79
2023/11/19 00:15:06;;;;;;;5.03;2.10;;;13.10;99.90;;;;;;4957468;28;90769;-79
2023/11/19 00:17:32;;;;;;;4.78;2.15;;;13.10;99.90;;;;;;4956128;28;90098;-78
2023/11/19 00:20:06;;;;;;;4.55;2.03;;;13.10;99.90;;;;;;4974633;28;87963;-80
2023/11/19 00:22:32;;;;;;;4.28;1.58;;;13.10;99.90;;;;;;4965153;28;85973;-79
2023/11/19 00:24:59;;;;;;;3.33;2.60;;;13.10;99.90;;;;;;4959250;28;90465;-79
2023/11/19 00:27:25;;;;;;;5.38;2.30;;;13.10;99.90;;;;;;4970611;28;89888;-78
2023/11/19 00:29:50;;;;;;;2.95;2.17;;;13.10;99.90;;;;;;4957575;28;86862;-81
2023/11/19 00:32:16;;;;;;;4.75;2.88;;;13.20;99.90;;;;;;4960646;28;86444;-79
2023/11/19 00:34:44;;;;;;;6.88;2.50;;;13.20;99.90;;;;;;4957602;28;86364;-78
2023/11/19 00:37:10;;;;;;;4.75;2.17;;;13.20;99.90;;;;;;4958982;28;89445;-79
2023/11/19 00:39:35;;;;;;;2.92;1.95;;;13.20;99.90;;;;;;4957204;28;86567;-78
2023/11/19 00:42:01;;;;;;;3.65;2.47;;;13.20;99.90;;;;;;4955397;28;86371;-78
2023/11/19 00:44:27;;;;;;;4.32;2.13;;;13.20;99.90;;;;;;4957251;28;90335;-78
2023/11/19 00:46:52;;;;;;;3.97;2.30;;;13.20;99.90;;;;;;4956698;28;87453;-78
2023/11/19 00:49:18;;;;;;;6.63;2.95;;;13.20;99.90;;;;;;4949620;28;86375;-78
2023/11/19 00:51:45;;;;;;;5.60;2.58;;;13.20;99.90;;;;;;4956180;28;86263;-78
2023/11/19 00:54:11;;;;;;;9.77;3.20;;;13.20;99.90;;;;;;4954655;28;87014;-79
2023/11/19 00:56:37;;;;;;;7.43;2.90;;;13.30;99.90;;;;;;4954819;28;87199;-79
2023/11/19 00:59:03;;;;;;;9.40;2.83;;;13.30;99.90;;;;;;4961588;28;86415;-78
2023/11/19 01:01:29;;;;;;;6.32;2.90;;;13.20;99.90;;;;;;4962682;28;86850;-78
2023/11/19 01:03:57;;;;;;;11.50;3.00;;;13.30;99.90;;;;;;4954786;28;87798;-78
2023/11/19 01:06:32;;;;;;;10.00;2.95;;;13.20;99.90;;;;;;4956342;28;90767;-78
2023/11/19 01:08:58;;;;;;;7.80;2.72;;;13.20;99.90;;;;;;4953869;28;86651;-79
2023/11/19 01:11:24;;;;;;;9.27;2.58;;;13.30;99.90;;;;;;4957844;28;86522;-78
2023/11/19 01:13:50;;;;;;;8.18;2.42;;;13.30;99.90;;;;;;4965333;28;90703;-78
2023/11/19 01:16:16;;;;;;;15.13;2.70;;;13.30;99.90;;;;;;4960361;28;86821;-79
2023/11/19 01:18:42;;;;;;;9.25;2.20;;;13.30;99.90;;;;;;4957102;28;86600;-79
2023/11/19 01:21:08;;;;;;;6.75;2.53;;;13.30;99.90;;;;;;4957080;28;86132;-78
2023/11/19 01:23:34;;;;;;;9.65;2.70;;;13.40;99.90;;;;;;4963058;28;90559;-78
2023/11/19 01:26:00;;;;;;;7.60;2.45;;;13.40;99.90;;;;;;4953647;28;90399;-77
2023/11/19 01:28:25;;;;;;;7.43;2.30;;;13.40;99.90;;;;;;4961881;28;86551;-79
2023/11/19 01:30:52;;;;;;;11.02;2.50;;;13.40;99.90;;;;;;4964252;28;86527;-78
2023/11/19 01:33:17;;;;;;;10.25;2.38;;;13.40;99.90;;;;;;4958073;28;89165;-78
2023/11/19 01:35:43;;;;;;;9.90;2.67;;;13.40;99.90;;;;;;4959217;28;86492;-78
2023/11/19 01:38:08;;;;;;;13.95;2.70;;;13.40;99.90;;;;;;4959385;28;86440;-78
2023/11/19 01:40:36;;;;;;;14.07;2.53;;;13.40;99.90;;;;;;4955778;28;86620;-78
2023/11/19 01:43:02;;;;;;;8.25;2.22;;;13.40;99.90;;;;;;4956805;28;90414;-79
2023/11/19 01:45:32;;;;;;;12.65;2.80;;;13.40;99.90;;;;;;4954500;28;89250;-77
2023/11/19 01:48:00;;;;;;;17.63;2.90;;;13.40;99.90;;;;;;4957304;28;86983;-78
2023/11/19 01:50:26;;;;;;;15.90;2.42;;;13.40;99.90;;;;;;4955362;28;86526;-78
2023/11/19 01:52:57;;;;;;;10.70;2.20;;;13.40;99.90;;;;;;4955100;28;91010;-78
2023/11/19 01:55:25;;;;;;;10.00;2.08;;;13.40;99.90;;;;;;4955212;28;86834;-79
2023/11/19 01:57:53;;;;;;;13.02;1.63;;;13.40;99.90;;;;;;4955652;28;86870;-78
2023/11/19 02:00:19;;;;;;;17.80;2.05;;;13.40;99.90;;;;;;4959829;28;86620;-78
2023/11/19 02:02:47;;;;;;;13.73;1.90;;;13.50;99.90;;;;;;4952042;28;90503;-78
2023/11/19 02:05:14;;;;;;;10.35;2.28;;;13.50;99.90;;;;;;4948227;28;91418;-80
2023/11/19 02:07:40;;;;;;;16.65;2.95;;;13.50;99.90;;;;;;4951166;28;93237;-78
2023/11/19 02:10:08;;;;;;;20.30;3.00;;;13.50;99.90;;;;;;4951415;28;88878;-78
2023/11/19 02:12:34;;;;;;;13.70;1.80;;;13.50;99.90;;;;;;4950772;28;90512;-77
2023/11/19 02:14:59;;;;;;;14.57;2.50;;;13.50;99.90;;;;;;4950277;28;89514;-79
2023/11/19 02:17:34;;;;;;;14.98;1.70;;;13.50;99.90;;;;;;4954323;28;88070;-78
2023/11/19 02:20:00;;;;;;;13.02;2.25;;;13.50;99.90;;;;;;4949939;28;88093;-78
2023/11/19 02:22:26;;;;;;;17.00;2.13;;;13.50;99.90;;;;;;4962869;28;89977;-79
2023/11/19 02:24:59;;;;;;;20.58;2.38;;;13.50;99.90;;;;;;4961729;28;91573;-79
2023/11/19 02:27:42;;;;;;;14.65;1.90;;;13.50;99.90;;;;;;4953376;28;91405;-78
2023/11/19 02:30:08;;;;;;;16.92;2.92;;;13.50;99.90;;;;;;4953623;28;87664;-80
2023/11/19 02:32:35;;;;;;;13.65;1.70;;;13.50;99.90;;;;;;4955492;28;87493;-78
2023/11/19 02:35:01;;;;;;;17.92;2.05;;;13.50;99.90;;;;;;4954071;28;91221;-79
2023/11/19 02:37:28;;;;;;;18.50;2.55;;;13.50;99.90;;;;;;4952657;28;89055;-77
2023/11/19 02:39:54;;;;;;;15.15;2.30;;;13.50;99.90;;;;;;4952491;28;88921;-78
2023/11/19 02:42:19;;;;;;;10.70;2.00;;;13.50;99.90;;;;;;4953624;28;88222;-79
2023/11/19 02:44:46;;;;;;;13.95;2.03;;;13.50;99.90;;;;;;4953839;28;95529;-79
2023/11/19 02:47:11;;;;;;;14.48;2.33;;;13.50;99.90;;;;;;4949445;28;91214;-78
2023/11/19 02:49:37;;;;;;;17.42;2.10;;;13.40;99.90;;;;;;4951887;28;87629;-79
2023/11/19 02:52:05;;;;;;;15.02;2.38;;;13.40;99.90;;;;;;4951627;28;88779;-78
2023/11/19 02:54:34;;;;;;;14.73;2.20;;;13.40;99.90;;;;;;4959274;28;92381;-77
2023/11/19 02:57:02;;;;;;;19.08;2.60;;;13.40;99.90;;;;;;4952740;28;88319;-78
2023/11/19 02:59:28;;;;;;;14.25;2.60;;;13.40;99.90;;;;;;4945587;28;88537;-77
2023/11/19 03:01:59;;;;;;;13.77;2.28;;;13.40;99.90;;;;;;4947743;28;90964;-77
2023/11/19 03:04:25;;;;;;;17.67;2.40;;;13.30;99.90;;;;;;4961176;28;92785;-77
2023/11/19 03:06:53;;;;;;;20.10;2.58;;;13.40;99.90;;;;;;4960922;28;92569;-78
2023/11/19 03:09:18;;;;;;;18.08;2.80;;;13.40;99.90;;;;;;4946687;28;88164;-78
2023/11/19 03:11:44;;;;;;;21.25;3.28;;;13.30;99.90;;;;;;4953750;28;87838;-78
2023/11/19 03:14:10;;;;;;;17.55;2.58;;;13.30;99.90;;;;;;4952253;28;90771;-78
2023/11/19 03:16:35;;;;;;;19.55;2.80;;;13.30;99.90;;;;;;4952890;28;88142;-78
2023/11/19 03:19:01;;;;;;;18.63;2.70;;;13.30;99.90;;;;;;4951686;28;88039;-79
2023/11/19 03:21:31;;;;;;;24.88;2.75;;;13.20;99.90;;;;;;4953911;28;87456;-79
2023/11/19 03:23:59;;;;;;;18.25;2.80;;;13.20;99.90;;;;;;4958556;28;90460;-78
2023/11/19 03:26:27;;;;;;;17.98;2.97;;;13.10;99.90;;;;;;4949201;28;90244;-77
2023/11/19 03:28:53;;;;;;;13.45;2.40;;;13.10;99.90;;;;;;4950342;28;89020;-78
2023/11/19 03:31:18;;;;;;;15.02;2.50;;;13.10;99.90;;;;;;4975603;28;90720;-78
2023/11/19 03:33:45;;;;;;;22.02;2.50;;;13.00;99.90;;;;;;4958116;28;90518;-79
2023/11/19 03:36:10;;;;;;;17.27;2.35;;;13.00;99.90;;;;;;4953931;28;88807;-78
2023/11/19 03:38:36;;;;;;;22.77;3.03;;;12.90;99.90;;;;;;4950698;28;87952;-78
2023/11/19 03:41:19;;;;;;;22.90;2.70;;;12.90;99.90;;;;;;4960465;28;88767;-78
2023/11/19 03:43:45;;;;;;;13.18;1.70;;;12.80;99.90;;;;;;4952062;28;91529;-78
2023/11/19 03:46:18;;;;;;;18.48;2.63;;;12.80;99.90;;;;;;4957204;28;92560;-77
2023/11/19 03:48:43;;;;;;;20.55;2.63;;;12.80;99.90;;;;;;4946849;28;87900;-78
2023/11/19 03:51:09;;;;;;;15.20;2.13;;;12.70;99.90;;;;;;4952433;28;89280;-78
2023/11/19 03:53:35;;;;;;;14.70;2.55;;;12.70;99.90;;;;;;4957205;28;92678;-78
2023/11/19 03:56:01;;;;;;;21.67;3.25;;;12.60;99.90;;;;;;4949765;28;90556;-78
2023/11/19 03:58:26;;;;;;;18.08;1.98;;;12.60;99.90;;;;;;4949532;28;87828;-78
2023/11/19 04:00:52;;;;;;;20.33;2.95;;;12.60;99.90;;;;;;4949712;28;88784;-78
2023/11/19 04:03:19;;;;;;;15.68;2.67;;;12.60;99.90;;;;;;4959603;28;92301;-78
2023/11/19 04:05:45;;;;;;;13.45;3.00;;;12.60;99.90;;;;;;4958709;28;89397;-78
2023/11/19 04:08:10;;;;;;;13.93;2.78;;;12.50;99.90;;;;;;4957588;28;88632;-78
2023/11/19 04:10:36;;;;;;;20.20;2.30;;;12.50;99.90;;;;;;4953367;28;87548;-79
2023/11/19 04:13:02;;;;;;;31.70;3.72;;;12.50;99.90;;;;;;4960598;28;91749;-78
2023/11/19 04:15:27;;;;;;;19.42;2.92;;;12.50;99.90;;;;;;4955153;28;88810;-78
2023/11/19 04:17:53;;;;;;;15.90;3.05;;;12.40;99.90;;;;;;4950214;28;88794;-77
2023/11/19 04:20:18;;;;;;;19.20;2.45;;;12.40;99.90;;;;;;4954796;28;87828;-79
2023/11/19 04:22:44;;;;;;;18.35;2.78;;;12.40;99.90;;;;;;4951525;28;88511;-78
2023/11/19 04:25:10;;;;;;;20.40;3.03;;;12.40;99.90;;;;;;4952080;28;88360;-78
2023/11/19 04:27:36;;;;;;;19.55;2.40;;;12.40;99.90;;;;;;4952181;28;88654;-78
2023/11/19 04:30:03;;;;;;;21.65;2.47;;;12.30;99.90;;;;;;4950175;28;88411;-78
2023/11/19 04:32:29;;;;;;;17.05;2.50;;;12.30;99.90;;;;;;4949268;28;88300;-78
2023/11/19 04:34:55;;;;;;;20.08;2.45;;;12.30;99.90;;;;;;4954601;28;88552;-78
2023/11/19 04:37:20;;;;;;;22.75;2.17;;;12.20;99.90;;;;;;4947182;28;87317;-78
2023/11/19 04:39:46;;;;;;;26.48;3.28;;;12.20;99.90;;;;;;4960089;28;90715;-80
2023/11/19 04:42:12;;;;;;;13.20;2.55;;;12.20;99.90;;;;;;4957401;28;90946;-78
2023/11/19 04:44:37;;;;;;;24.20;3.20;;;12.20;99.90;;;;;;4951250;28;90921;-78
2023/11/19 04:47:03;;;;;;;22.40;3.08;;;12.20;99.90;;;;;;4944867;28;88220;-78
2023/11/19 04:49:30;;;;;;;23.30;4.68;;;12.20;99.90;;;;;;4945222;28;90524;-79
2023/11/19 04:51:56;;;;;;;19.73;3.08;;;12.20;99.90;;;;;;4953250;28;88597;-77
2023/11/19 04:54:22;;;;;;;19.63;2.53;;;12.20;99.90;;;;;;4952498;28;88450;-78
2023/11/19 04:56:48;;;;;;;20.85;3.67;;;12.20;99.90;;;;;;4952755;28;88018;-79
2023/11/19 04:59:14;;;;;;;18.92;2.40;;;12.20;99.90;;;;;;4961931;28;90785;-78
2023/11/19 05:01:40;;;;;;;22.67;2.95;;;12.10;99.90;;;;;;4946809;28;91515;-77
2023/11/19 05:04:07;;;;;;;27.40;4.03;;;12.10;99.90;;;;;;4947557;28;95275;-79
2023/11/19 05:06:33;;;;;;;22.88;3.15;;;12.10;99.90;;;;;;4948353;28;88444;-80
2023/11/19 05:09:09;;;;;;;27.38;3.13;;;12.10;99.90;;;;;;4952694;28;88221;-78
2023/11/19 05:11:35;;;;;;;19.35;2.47;;;12.20;99.90;;;;;;4949799;28;88147;-78
2023/11/19 05:14:03;;;;;;;26.63;2.85;;;12.20;99.90;;;;;;4947687;28;88487;-78
2023/11/19 05:16:29;;;;;;;23.55;2.80;;;12.20;99.90;;;;;;4951697;28;87643;-77
2023/11/19 05:18:55;;;;;;;28.00;3.05;;;12.30;99.90;;;;;;4950573;28;87669;-78
2023/11/19 05:21:21;;;;;;;20.50;3.42;;;12.30;99.90;;;;;;4959705;28;93139;-78
2023/11/19 05:23:46;;;;;;;27.98;4.15;;;12.30;99.90;;;;;;4948904;28;91863;-78
2023/11/19 05:26:20;;;;;;;25.48;3.28;;;12.30;99.90;;;;;;4953033;28;87490;-78
2023/11/19 05:28:45;;;;;;;19.48;2.80;;;12.30;99.90;;;;;;4949130;28;90090;-77
2023/11/19 05:31:11;;;;;;;24.27;3.20;;;12.30;99.90;;;;;;4949689;28;89293;-78
2023/11/19 05:33:37;;;;;;;23.10;3.25;;;12.30;99.90;;;;;;4948279;28;89769;-77
2023/11/19 05:36:03;;;;;;;32.65;3.30;;;12.30;99.90;;;;;;4959128;28;87799;-79
2023/11/19 05:38:30;;;;;;;26.08;3.78;;;12.30;99.90;;;;;;4950333;28;88229;-78
2023/11/19 05:40:55;;;;;;;25.55;3.25;;;12.30;99.90;;;;;;4951097;28;92142;-78
2023/11/19 05:43:21;;;;;;;18.20;3.03;;;12.30;99.90;;;;;;4950609;28;88073;-79
2023/11/19 05:45:47;;;;;;;26.50;3.55;;;12.30;99.90;;;;;;4949170;28;87745;-77
2023/11/19 05:48:13;;;;;;;20.98;3.80;;;12.30;99.90;;;;;;4951239;28;90455;-78
2023/11/19 05:50:39;;;;;;;21.73;2.88;;;12.30;99.90;;;;;;4958015;28;91620;-78
2023/11/19 05:53:06;;;;;;;23.10;3.00;;;12.30;99.90;;;;;;4951519;28;89482;-79
2023/11/19 05:55:34;;;;;;;17.13;2.88;;;12.30;99.90;;;;;;4951054;28;88467;-78
2023/11/19 05:58:00;;;;;;;22.90;3.42;;;12.30;99.90;;;;;;4959200;28;90162;-79
2023/11/19 06:00:26;;;;;;;18.00;3.28;;;12.30;99.90;;;;;;4954611;28;88107;-79
2023/11/19 06:02:52;;;;;;;21.23;4.07;;;12.30;99.90;;;;;;4962467;28;90443;-78
2023/11/19 06:05:18;;;;;;;27.25;3.88;;;12.20;99.90;;;;;;4957669;28;87620;-80
2023/11/19 06:07:43;;;;;;;26.20;2.83;;;12.10;99.90;;;;;;4959356;28;88102;-79
2023/11/19 06:10:10;;;;;;;20.98;2.75;;;12.10;99.90;;;;;;4957657;28;88290;-78
2023/11/19 06:12:37;;;;;;;25.52;3.35;;;12.10;99.90;;;;;;4955869;28;88279;-79
2023/11/19 06:15:04;;;;;;;21.70;2.83;;;12.00;99.90;;;;;;4954815;28;87346;-78
2023/11/19 06:17:30;;;;;;;65.85;6.00;;;12.00;99.90;;;;;;4953476;28;91834;-78
2023/11/19 06:19:56;;;;;;;22.05;3.80;;;12.00;99.90;;;;;;4953442;28;89200;-78
2023/11/19 06:22:21;;;;;;;23.35;3.92;;;11.90;99.90;;;;;;4952089;28;92300;-78
2023/11/19 06:24:47;;;;;;;28.30;3.53;;;11.90;99.90;;;;;;4979335;28;87507;-79
2023/11/19 06:27:13;;;;;;;20.15;3.53;;;11.90;99.90;;;;;;4955993;28;87802;-79
2023/11/19 06:29:40;;;;;;;27.95;2.75;;;11.80;99.90;;;;;;4980339;28;92282;-79
2023/11/19 06:32:07;;;;;;;21.90;3.35;;;11.80;99.90;;;;;;4963905;28;91547;-79
2023/11/19 06:34:33;;;;;;;23.58;3.70;;;11.80;99.90;;;;;;4956930;28;87521;-79
2023/11/19 06:36:59;;;;;;;28.02;3.70;;;11.70;99.90;;;;;;4954411;28;89375;-79
2023/11/19 06:39:25;;;;;;;21.52;3.13;;;11.70;99.90;;;;;;4956490;28;88060;-79
2023/11/19 06:41:52;;;;;;;27.88;3.90;;;11.70;99.90;;;;;;4954133;28;89926;-79
2023/11/19 06:44:17;;;;;;;26.08;3.22;;;11.70;99.90;;;;;;4952257;28;88877;-79
2023/11/19 06:46:43;;;;;;;36.63;3.75;;;11.70;99.90;;;;;;4955157;28;88039;-79
2023/11/19 06:49:09;;;;;;;32.20;3.75;;;11.60;99.90;;;;;;4967097;28;91440;-78
2023/11/19 06:51:34;;;;;;;26.10;3.15;;;11.60;99.90;;;;;;4964417;28;90195;-78
2023/11/19 06:54:00;;;;;;;26.58;3.63;;;11.60;99.90;;;;;;4961526;28;92129;-79
2023/11/19 06:56:26;;;;;;;27.70;3.42;;;11.60;99.90;;;;;;4959121;28;89468;-79
2023/11/19 06:58:53;;;;;;;27.58;2.88;;;11.60;99.90;;;;;;4962725;28;88557;-79
2023/11/19 07:01:19;;;;;;;35.58;5.55;;;11.60;99.90;;;;;;4954265;28;91683;-79
2023/11/19 07:03:48;;;;;;;33.92;3.88;;;11.60;99.90;;;;;;4955886;28;87804;-79
2023/11/19 07:06:14;;;;;;;23.65;3.20;;;11.60;99.90;;;;;;4953852;28;89800;-80
2023/11/19 07:08:46;;;;;;;24.40;3.80;;;11.50;99.90;;;;;;4961065;28;90798;-80
2023/11/19 07:11:13;;;;;;;25.25;3.42;;;11.60;99.90;;;;;;4957482;28;88499;-79
2023/11/19 07:13:41;;;;;;;32.85;3.97;;;11.50;99.90;;;;;;4954816;28;87707;-79
2023/11/19 07:16:09;;;;;;;33.10;4.28;;;11.50;99.90;;;;;;4958686;28;94828;-79
2023/11/19 07:18:35;;;;;;;26.48;3.50;;;11.50;99.90;;;;;;4956925;28;90609;-80
2023/11/19 07:21:02;;;;;;;28.05;3.65;;;11.40;99.90;;;;;;4962624;28;89441;-79
2023/11/19 07:26:10;;;;;;;26.27;3.88;;;11.40;99.90;;;;;;5043542;22;87543;-80
2023/11/19 07:28:36;;;;;;;23.38;3.20;;;11.40;99.90;;;;;;4952398;28;89877;-79
2023/11/19 07:31:02;;;;;;;21.48;3.15;;;11.40;99.90;;;;;;4965475;28;89382;-80
2023/11/19 07:33:27;;;;;;;29.30;4.03;;;11.40;99.90;;;;;;4963574;28;88392;-77
2023/11/19 07:35:53;;;;;;;30.17;3.95;;;11.40;99.90;;;;;;4946382;28;89653;-78
2023/11/19 07:38:19;;;;;;;29.33;3.72;;;11.40;99.90;;;;;;4963379;28;88224;-78
2023/11/19 07:40:44;;;;;;;27.05;3.65;;;11.40;99.90;;;;;;4945655;28;91313;-78
2023/11/19 07:43:11;;;;;;;26.38;3.83;;;11.40;99.90;;;;;;4940289;28;87780;-78
2023/11/19 07:45:37;;;;;;;17.05;2.38;;;11.40;99.90;;;;;;4967732;28;88103;-78
2023/11/19 07:48:03;;;;;;;33.15;3.58;;;11.40;99.90;;;;;;4964012;28;87761;-79
2023/11/19 07:50:31;;;;;;;24.15;3.78;;;11.40;99.90;;;;;;4963222;28;88271;-77
2023/11/19 07:52:57;;;;;;;26.95;3.28;;;11.40;99.90;;;;;;4946602;28;87376;-77
2023/11/19 07:55:22;;;;;;;35.13;3.50;;;11.50;99.90;;;;;;4971826;28;88420;-78
2023/11/19 07:57:48;;;;;;;29.58;3.75;;;11.40;99.90;;;;;;4945964;28;92341;-78
2023/11/19 08:00:16;;;;;;;30.02;3.40;;;11.40;99.90;;;;;;4963413;28;89735;-78
2023/11/19 08:02:42;;;;;;;25.67;3.58;;;11.50;99.90;;;;;;4964763;28;88270;-77
2023/11/19 08:05:07;;;;;;;27.52;3.30;;;11.50;99.90;;;;;;4944212;28;90635;-77
2023/11/19 08:07:33;;;;;;;32.45;3.47;;;11.50;99.90;;;;;;4962614;28;87426;-78
2023/11/19 08:10:00;;;;;;;27.23;3.78;;;11.50;99.90;;;;;;4963206;28;88321;-78
2023/11/19 08:12:25;;;;;;;36.75;4.38;;;11.60;99.90;;;;;;4964916;28;88186;-79
2023/11/19 08:14:51;;;;;;;38.90;5.80;;;11.60;99.90;;;;;;4947926;28;89891;-77
2023/11/19 08:17:17;;;;;;;31.95;4.20;;;11.60;99.90;;;;;;4937534;28;91690;-77
2023/11/19 08:19:42;;;;;;;32.05;4.03;;;11.70;99.90;;;;;;4948030;28;92037;-77
2023/11/19 08:22:09;;;;;;;34.60;4.20;;;11.70;99.90;;;;;;4948514;28;88285;-78
2023/11/19 08:24:35;;;;;;;34.25;3.88;;;11.70;99.90;;;;;;4967304;28;88065;-78
2023/11/19 08:27:00;;;;;;;32.17;4.45;;;11.80;99.90;;;;;;4941891;28;90766;-78
2023/11/19 08:29:27;;;;;;;31.60;4.10;;;11.80;99.90;;;;;;4968613;28;88920;-78
2023/11/19 08:31:53;;;;;;;31.40;4.35;;;11.80;99.90;;;;;;4954819;28;88519;-79
2023/11/19 08:34:18;;;;;;;24.58;3.15;;;11.90;99.90;;;;;;4972009;28;87106;-78
2023/11/19 08:36:44;;;;;;;93.72;10.07;;;11.90;99.90;;;;;;4970502;28;87643;-77
2023/11/19 08:39:09;;;;;;;34.80;3.67;;;12.00;99.90;;;;;;4938075;28;91480;-78
2023/11/19 08:41:35;;;;;;;28.40;3.42;;;12.00;99.90;;;;;;4943900;28;91487;-78
2023/11/19 08:44:02;;;;;;;30.25;3.42;;;12.10;99.90;;;;;;4961297;28;88557;-77
2023/11/19 08:46:28;;;;;;;31.38;4.15;;;12.00;99.90;;;;;;4967707;28;88820;-76
2023/11/19 08:48:56;;;;;;;22.05;5.40;;;12.10;99.90;;;;;;5372704;22;89104;-79
2023/11/19 08:51:24;;;;;;;24.90;4.30;;;12.10;99.90;;;;;;4973870;28;87355;-80
2023/11/19 09:48:12;;;;;;;27.27;3.83;;;13.00;99.90;;;;;;1674019;22;88052;-79
2023/11/19 10:48:13;;;;;;;28.95;3.85;;;13.80;99.90;;;;;;5044040;22;87680;-93
2023/11/19 10:50:40;;;;;;;36.50;3.72;;;13.90;99.90;;;;;;4955914;28;90547;-94
2023/11/19 10:53:12;;;;;;;17.95;3.20;;;14.10;99.90;;;;;;4950610;28;89354;-93
2023/11/19 10:55:38;;;;;;;23.83;3.10;;;14.10;99.90;;;;;;4953010;28;88076;-93
2023/11/19 10:58:08;;;;;;;26.27;3.35;;;14.20;99.90;;;;;;4931962;28;87685;-94
2023/11/19 11:00:53;;;;;;;18.48;2.88;;;14.20;99.90;;;;;;4949649;28;90383;-93
2023/11/19 11:03:24;;;;;;;25.88;3.15;;;14.20;99.90;;;;;;4963934;28;87926;-95
2023/11/19 11:05:52;;;;;;;19.65;3.33;;;14.30;99.90;;;;;;4954103;28;87741;-93
2023/11/19 11:08:19;;;;;;;23.33;3.10;;;14.40;99.90;;;;;;4953800;28;89506;-94
2023/11/19 11:10:55;;;;;;;26.77;3.40;;;14.40;99.90;;;;;;4970523;28;89378;-94
2023/11/19 11:13:24;;;;;;;34.50;3.67;;;14.50;99.90;;;;;;4954388;28;90174;-93
2023/11/19 11:15:50;;;;;;;23.00;3.55;;;14.50;99.90;;;;;;4953904;28;87411;-92
2023/11/19 11:21:26;;;;;;;24.85;2.90;;;14.40;99.90;;;;;;4960845;28;88512;-93
2023/11/19 12:19:22;;;;;;;;;;;14.20;99.90;;;;;;4974738;28;88274;-94
2023/11/19 12:21:48;;;;;;;18.50;2.58;;;14.30;99.90;;;;;;4972341;28;87491;-93
2023/11/19 12:24:15;;;;;;;27.13;4.22;;;14.50;99.90;;;;;;4956701;28;88169;-91
2023/11/19 12:26:41;;;;;;;27.23;3.70;;;14.60;99.90;;;;;;4984537;28;90163;-95
2023/11/19 12:29:08;;;;;;;27.48;3.30;;;14.80;99.90;;;;;;4976845;28;89748;-95
2023/11/19 12:31:35;;;;;;;22.30;3.38;;;14.80;99.90;;;;;;4977321;28;87792;-93
2023/11/19 12:34:05;;;;;;;22.88;3.38;;;14.90;99.90;;;;;;4976819;28;86689;-93
2023/11/19 12:36:30;;;;;;;22.35;3.10;;;14.90;99.90;;;;;;4964052;28;91161;-92
2023/11/19 12:38:58;;;;;;;23.90;3.47;;;15.00;99.90;;;;;;4968870;28;89637;-95
2023/11/19 12:41:25;;;;;;;24.88;3.10;;;15.20;99.90;;;;;;4982021;28;88247;-94
2023/11/19 12:43:50;;;;;;;18.50;2.97;;;15.30;99.90;;;;;;4964872;28;88161;-93
2023/11/19 12:46:23;;;;;;;18.35;3.67;;;15.50;99.90;;;;;;4976056;28;90077;-92
2023/11/19 12:48:50;;;;;;;20.02;3.38;;;15.60;99.90;;;;;;4966239;28;88865;-93
2023/11/19 12:51:18;;;;;;;18.25;2.90;;;15.60;99.90;;;;;;4966575;28;87610;-93
2023/11/19 12:53:54;;;;;;;22.40;3.58;;;15.60;99.90;;;;;;4975669;28;89371;-93
2023/11/19 12:56:21;;;;;;;16.45;2.20;;;15.60;99.90;;;;;;4959436;28;90823;-92
2023/11/19 13:30:43;;;;;;;25.52;3.40;;;13.70;99.90;;;;;;5104791;22;88643;-79
2023/11/19 13:41:03;;;;;;;18.17;2.58;;;13.70;99.90;;;;;;5907960;22;88620;-79
2023/11/19 14:01:36;;;;;;;22.98;3.38;;;14.30;99.90;;;;;;5767361;22;89630;-78
2023/11/19 14:11:54;;;;;;;20.27;4.05;;;13.90;99.90;;;;;;6013686;22;88715;-78
2023/11/19 14:22:07;;;;;;;26.67;3.72;;;13.40;99.90;;;;;;5580831;22;88270;-79
2023/11/19 14:24:32;;;;;;;23.08;3.10;;;13.40;99.90;;;;;;5152452;22;95111;-80
2023/11/19 14:50:16;;;;;;;21.92;2.65;;;13.40;99.90;;;;;;5870779;22;89832;-79
2023/11/19 15:08:16;;;;;;;21.65;3.30;;;13.20;99.90;;;;;;5818818;22;88299;-79
2023/11/19 15:10:43;;;;;;;30.17;4.32;;;13.20;99.90;;;;;;5081018;22;88026;-79
2023/11/19 15:13:09;;;;;;;32.47;3.33;;;13.10;99.90;;;;;;5102042;22;87874;-80
2023/11/19 15:15:34;;;;;;;26.50;3.45;;;13.10;99.90;;;;;;4982041;28;89045;-80
2023/11/19 15:18:00;;;;;;;28.42;3.47;;;13.10;99.90;;;;;;4982240;28;86863;-80
2023/11/19 15:20:29;;;;;;;21.23;3.55;;;13.10;99.90;;;;;;4965834;28;89747;-79
2023/11/19 15:22:56;;;;;;;22.10;3.33;;;13.10;99.90;;;;;;5636108;22;89703;-79
2023/11/19 15:25:23;;;;;;;18.58;3.17;;;13.10;99.90;;;;;;4964017;28;87253;-79
2023/11/19 15:27:49;;;;;;;24.13;2.90;;;13.10;99.90;;;;;;4967480;28;87176;-79
2023/11/19 15:32:51;;;;;;;32.03;3.78;;;13.10;99.90;;;;;;5648206;22;87699;-79
2023/11/19 15:37:52;;;;;;;44.55;4.13;;;13.10;99.90;;;;;;5110962;22;89631;-79
2023/11/19 15:41:07;;;;;;;49.85;5.93;;;13.00;99.90;;;;;;4986896;28;90639;-81
2023/11/19 15:43:33;;;;;;;26.67;2.95;;;13.00;99.90;;;;;;4980368;28;90438;-81
2023/11/19 15:51:12;;;;;;;31.80;3.65;;;12.90;99.90;;;;;;6007531;22;88508;-78
2023/11/19 16:09:14;;;;;;;23.17;3.70;;;12.80;99.90;;;;;;5812935;22;89270;-80
2023/11/19 16:14:18;;;;;;;26.40;3.15;;;12.80;99.90;;;;;;5650458;22;88921;-79
2023/11/19 18:00:15;;;;;;;27.80;5.13;;;12.10;99.90;;;;;;5171781;22;88873;-79
2023/11/19 18:02:49;;;;;;;20.90;3.70;;;12.10;99.90;;;;;;4986972;28;88077;-79
2023/11/19 18:05:15;;;;;;;;;;;12.10;99.90;;;;;;4999901;28;88509;-79
2023/11/19 18:07:41;;;;;;;20.60;3.10;;;12.10;99.90;;;;;;4982770;28;90614;-78
2023/11/19 18:10:08;;;;;;;27.15;4.03;;;12.10;99.90;;;;;;4999948;28;87133;-79
2023/11/19 18:12:34;;;;;;;22.48;3.05;;;12.10;99.90;;;;;;4997311;28;87267;-79
2023/11/19 18:15:00;;;;;;;20.50;2.90;;;12.10;99.90;;;;;;4999453;28;89332;-79
2023/11/19 18:17:26;;;;;;;13.27;3.67;;;12.10;99.90;;;;;;4997665;28;88085;-78
2023/11/19 18:19:52;;;;;;;28.90;4.22;;;12.10;99.90;;;;;;4998149;28;87648;-79
2023/11/19 18:22:18;;;;;;;24.40;3.50;;;12.00;99.90;;;;;;4979233;28;88948;-79
2023/11/19 18:24:43;;;;;;;21.40;2.90;;;12.10;99.90;;;;;;4997710;28;87756;-79
2023/11/19 18:27:09;;;;;;;23.88;3.35;;;12.10;99.90;;;;;;4979461;28;91208;-79
2023/11/19 18:29:35;;;;;;;23.05;3.22;;;12.10;99.90;;;;;;4998515;28;87120;-80
2023/11/19 18:32:02;;;;;;;18.70;2.88;;;12.10;99.90;;;;;;4981345;28;89096;-79
2023/11/19 18:34:28;;;;;;;25.63;3.15;;;12.00;99.90;;;;;;4998818;28;88310;-80
2023/11/19 18:36:54;;;;;;;23.17;3.42;;;12.00;99.90;;;;;;4978283;28;89611;-79
2023/11/19 18:39:19;;;;;;;24.58;3.63;;;12.00;99.90;;;;;;4998873;28;88328;-79
2023/11/19 18:41:45;;;;;;;20.70;3.25;;;12.00;99.90;;;;;;4999389;28;87617;-79
2023/11/19 18:44:13;;;;;;;27.25;4.00;;;12.00;99.90;;;;;;4980031;28;88876;-79
2023/11/19 18:46:39;;;;;;;15.70;2.97;;;12.00;99.90;;;;;;4974107;28;90173;-79
2023/11/19 18:49:05;;;;;;;22.90;3.10;;;12.00;99.90;;;;;;4998090;28;87216;-79
2023/11/19 18:51:31;;;;;;;25.45;3.40;;;11.90;99.90;;;;;;4979346;28;90391;-79
2023/11/19 18:53:57;;;;;;;25.58;2.70;;;11.90;99.90;;;;;;4999425;28;87892;-79
2023/11/19 18:56:24;;;;;;;22.67;2.92;;;11.90;99.90;;;;;;4997646;28;88684;-80
2023/11/19 18:58:49;;;;;;;30.95;4.38;;;11.90;99.90;;;;;;4981480;28;87210;-79
2023/11/19 19:01:17;;;;;;;26.10;3.60;;;11.80;99.90;;;;;;4980903;28;90379;-80
2023/11/19 19:03:49;;;;;;;28.85;3.50;;;11.80;99.90;;;;;;4973309;28;91862;-79
2023/11/19 19:06:15;;;;;;;24.15;3.15;;;11.80;99.90;;;;;;5000000;28;87965;-79
2023/11/19 19:08:43;;;;;;;35.47;3.45;;;11.70;99.90;;;;;;4997624;28;87390;-79
2023/11/19 19:11:12;;;;;;;18.98;2.63;;;11.70;99.90;;;;;;4997797;28;87902;-78
2023/11/19 19:13:38;;;;;;;25.13;3.03;;;11.70;99.90;;;;;;4993789;28;88288;-79
2023/11/19 19:16:08;;;;;;;22.65;2.97;;;11.70;99.90;;;;;;4996257;28;87556;-79
2023/11/19 19:18:35;;;;;;;20.75;2.97;;;11.70;99.90;;;;;;4997187;28;87355;-79
2023/11/19 19:21:01;;;;;;;24.02;3.95;;;11.70;99.90;;;;;;4978328;28;90020;-79
2023/11/19 19:23:27;;;;;;;18.77;2.58;;;11.70;99.90;;;;;;4979675;28;90201;-79
2023/11/19 19:25:54;;;;;;;11.85;1.70;;;11.70;99.90;;;;;;4996643;28;87046;-79
2023/11/19 19:28:20;;;;;;;17.88;2.42;;;11.70;99.90;;;;;;4996046;28;88716;-79
2023/11/19 19:30:48;;;;;;;17.48;2.70;;;11.80;99.90;;;;;;4995273;28;87552;-78
2023/11/19 19:33:13;;;;;;;16.05;2.35;;;11.80;99.90;;;;;;4996974;28;89193;-79